sensor_id;sensor_type;location;lat;lon;timestamp;P1;durP1;ratioP1;P2;durP2;ratioP2
16352;SDS011;8286;51.274;9.542;2023-06-26T00:01:04;7.80;;;5.47;;
16352;SDS011;8286;51.274;9.542;2023-06-26T00:03:31;6.88;;;5.40;;
16352;SDS011;8286;51.274;9.542;2023-06-26T00:05:58;8.88;;;6.25;;
16352;SDS011;8286;51.274;9.542;2023-06-26T00:08:27;7.47;;;6.30;;
16352;SDS011;8286;51.274;9.542;2023-06-26T00:10:54;6.97;;;6.28;;
16352;SDS011;8286;51.274;9.542;2023-06-26T00:13:21;7.18;;;5.97;;
16352;SDS011;8286;51.274;9.542;2023-06-26T00:15:48;8.75;;;6.32;;
16352;SDS011;8286;51.274;9.542;2023-06-26T00:18:15;6.55;;;5.93;;
16352;SDS011;8286;51.274;9.542;2023-06-26T00:20:41;7.28;;;5.90;;
16352;SDS011;8286;51.274;9.542;2023-06-26T00:23:08;8.30;;;5.68;;
16352;SDS011;8286;51.274;9.542;2023-06-26T00:25:36;8.70;;;6.53;;
16352;SDS011;8286;51.274;9.542;2023-06-26T00:28:03;9.95;;;6.22;;
16352;SDS011;8286;51.274;9.542;2023-06-26T00:30:29;6.90;;;5.60;;
16352;SDS011;8286;51.274;9.542;2023-06-26T00:32:56;6.40;;;5.40;;
16352;SDS011;8286;51.274;9.542;2023-06-26T00:35:23;9.63;;;5.47;;
16352;SDS011;8286;51.274;9.542;2023-06-26T00:37:49;6.22;;;5.57;;
16352;SDS011;8286;51.274;9.542;2023-06-26T00:40:16;9.65;;;5.65;;
16352;SDS011;8286;51.274;9.542;2023-06-26T00:42:44;11.60;;;6.25;;
16352;SDS011;8286;51.274;9.542;2023-06-26T00:45:11;7.30;;;5.57;;
16352;SDS011;8286;51.274;9.542;2023-06-26T00:47:37;6.68;;;5.97;;
16352;SDS011;8286;51.274;9.542;2023-06-26T00:50:05;6.65;;;5.82;;
16352;SDS011;8286;51.274;9.542;2023-06-26T00:52:32;6.63;;;5.30;;
16352;SDS011;8286;51.274;9.542;2023-06-26T00:54:59;10.85;;;5.78;;
16352;SDS011;8286;51.274;9.542;2023-06-26T00:57:25;7.75;;;5.57;;
16352;SDS011;8286;51.274;9.542;2023-06-26T00:59:54;10.88;;;6.60;;
16352;SDS011;8286;51.274;9.542;2023-06-26T01:02:21;10.23;;;6.13;;
16352;SDS011;8286;51.274;9.542;2023-06-26T01:04:48;10.52;;;5.95;;
16352;SDS011;8286;51.274;9.542;2023-06-26T01:07:16;8.13;;;6.40;;
16352;SDS011;8286;51.274;9.542;2023-06-26T01:09:44;6.93;;;6.32;;
16352;SDS011;8286;51.274;9.542;2023-06-26T01:12:11;9.65;;;6.40;;
16352;SDS011;8286;51.274;9.542;2023-06-26T01:14:37;6.15;;;5.40;;
16352;SDS011;8286;51.274;9.542;2023-06-26T01:17:06;8.65;;;5.65;;
16352;SDS011;8286;51.274;9.542;2023-06-26T01:19:37;8.85;;;5.70;;
16352;SDS011;8286;51.274;9.542;2023-06-26T01:22:07;9.25;;;5.65;;
16352;SDS011;8286;51.274;9.542;2023-06-26T01:24:39;7.78;;;6.05;;
16352;SDS011;8286;51.274;9.542;2023-06-26T01:27:11;7.68;;;6.30;;
16352;SDS011;8286;51.274;9.542;2023-06-26T01:29:38;6.38;;;5.78;;
16352;SDS011;8286;51.274;9.542;2023-06-26T01:32:06;7.95;;;6.40;;
16352;SDS011;8286;51.274;9.542;2023-06-26T01:34:33;6.70;;;5.95;;
16352;SDS011;8286;51.274;9.542;2023-06-26T01:37:01;7.53;;;6.15;;
16352;SDS011;8286;51.274;9.542;2023-06-26T01:39:27;8.80;;;6.15;;
16352;SDS011;8286;51.274;9.542;2023-06-26T01:41:54;8.32;;;5.88;;
16352;SDS011;8286;51.274;9.542;2023-06-26T01:44:25;8.88;;;6.13;;
16352;SDS011;8286;51.274;9.542;2023-06-26T01:46:54;10.65;;;6.65;;
16352;SDS011;8286;51.274;9.542;2023-06-26T01:49:28;7.95;;;6.50;;
16352;SDS011;8286;51.274;9.542;2023-06-26T01:51:58;7.60;;;5.63;;
16352;SDS011;8286;51.274;9.542;2023-06-26T01:54:29;9.50;;;5.72;;
16352;SDS011;8286;51.274;9.542;2023-06-26T01:56:57;7.70;;;6.20;;
16352;SDS011;8286;51.274;9.542;2023-06-26T01:59:25;8.07;;;5.57;;
16352;SDS011;8286;51.274;9.542;2023-06-26T02:01:52;8.20;;;5.40;;
16352;SDS011;8286;51.274;9.542;2023-06-26T02:04:18;9.25;;;5.63;;
16352;SDS011;8286;51.274;9.542;2023-06-26T02:06:45;6.35;;;5.50;;
16352;SDS011;8286;51.274;9.542;2023-06-26T02:09:12;9.15;;;5.78;;
16352;SDS011;8286;51.274;9.542;2023-06-26T02:11:38;7.90;;;5.53;;
16352;SDS011;8286;51.274;9.542;2023-06-26T02:14:05;8.27;;;5.32;;
16352;SDS011;8286;51.274;9.542;2023-06-26T02:16:33;6.40;;;5.60;;
16352;SDS011;8286;51.274;9.542;2023-06-26T02:18:59;6.93;;;5.68;;
16352;SDS011;8286;51.274;9.542;2023-06-26T02:21:26;8.60;;;5.35;;
16352;SDS011;8286;51.274;9.542;2023-06-26T02:23:53;6.28;;;5.60;;
16352;SDS011;8286;51.274;9.542;2023-06-26T02:26:19;7.35;;;4.93;;
16352;SDS011;8286;51.274;9.542;2023-06-26T02:28:46;8.70;;;5.60;;
16352;SDS011;8286;51.274;9.542;2023-06-26T02:31:13;8.85;;;5.85;;
16352;SDS011;8286;51.274;9.542;2023-06-26T02:33:42;5.88;;;5.05;;
16352;SDS011;8286;51.274;9.542;2023-06-26T02:36:10;6.35;;;5.03;;
16352;SDS011;8286;51.274;9.542;2023-06-26T02:38:37;5.80;;;4.85;;
16352;SDS011;8286;51.274;9.542;2023-06-26T02:41:03;7.03;;;5.57;;
16352;SDS011;8286;51.274;9.542;2023-06-26T02:43:30;8.27;;;5.75;;
16352;SDS011;8286;51.274;9.542;2023-06-26T02:45:56;12.88;;;6.07;;
16352;SDS011;8286;51.274;9.542;2023-06-26T02:48:23;9.43;;;5.35;;
16352;SDS011;8286;51.274;9.542;2023-06-26T02:50:51;10.32;;;5.15;;
16352;SDS011;8286;51.274;9.542;2023-06-26T02:53:18;14.50;;;5.72;;
16352;SDS011;8286;51.274;9.542;2023-06-26T02:55:44;6.28;;;5.35;;
16352;SDS011;8286;51.274;9.542;2023-06-26T02:58:12;8.55;;;5.70;;
16352;SDS011;8286;51.274;9.542;2023-06-26T03:00:39;7.95;;;5.80;;
16352;SDS011;8286;51.274;9.542;2023-06-26T03:03:06;6.88;;;5.70;;
16352;SDS011;8286;51.274;9.542;2023-06-26T03:05:33;11.52;;;5.53;;
16352;SDS011;8286;51.274;9.542;2023-06-26T03:08:01;8.65;;;5.78;;
16352;SDS011;8286;51.274;9.542;2023-06-26T03:10:28;6.10;;;5.38;;
16352;SDS011;8286;51.274;9.542;2023-06-26T03:12:55;7.78;;;5.40;;
16352;SDS011;8286;51.274;9.542;2023-06-26T03:15:21;8.50;;;5.47;;
16352;SDS011;8286;51.274;9.542;2023-06-26T03:17:48;5.30;;;4.80;;
16352;SDS011;8286;51.274;9.542;2023-06-26T03:20:14;6.13;;;5.05;;
16352;SDS011;8286;51.274;9.542;2023-06-26T03:22:41;7.95;;;5.38;;
16352;SDS011;8286;51.274;9.542;2023-06-26T03:25:09;10.00;;;5.07;;
16352;SDS011;8286;51.274;9.542;2023-06-26T03:27:36;9.73;;;5.38;;
16352;SDS011;8286;51.274;9.542;2023-06-26T03:30:02;6.93;;;5.65;;
16352;SDS011;8286;51.274;9.542;2023-06-26T03:32:29;8.02;;;5.45;;
16352;SDS011;8286;51.274;9.542;2023-06-26T03:34:56;6.68;;;4.90;;
16352;SDS011;8286;51.274;9.542;2023-06-26T03:37:22;9.63;;;5.43;;
16352;SDS011;8286;51.274;9.542;2023-06-26T03:39:49;5.75;;;4.95;;
16352;SDS011;8286;51.274;9.542;2023-06-26T03:42:17;10.98;;;6.25;;
16352;SDS011;8286;51.274;9.542;2023-06-26T03:44:43;6.35;;;5.47;;
16352;SDS011;8286;51.274;9.542;2023-06-26T03:47:10;9.98;;;5.57;;
16352;SDS011;8286;51.274;9.542;2023-06-26T03:49:36;7.25;;;5.45;;
16352;SDS011;8286;51.274;9.542;2023-06-26T03:52:03;5.95;;;5.35;;
16352;SDS011;8286;51.274;9.542;2023-06-26T03:54:30;8.63;;;5.82;;
16352;SDS011;8286;51.274;9.542;2023-06-26T03:56:59;7.15;;;5.65;;
16352;SDS011;8286;51.274;9.542;2023-06-26T03:59:27;7.15;;;5.35;;
16352;SDS011;8286;51.274;9.542;2023-06-26T04:01:53;6.95;;;5.25;;
16352;SDS011;8286;51.274;9.542;2023-06-26T04:04:20;10.30;;;5.50;;
16352;SDS011;8286;51.274;9.542;2023-06-26T04:06:46;9.68;;;5.15;;
16352;SDS011;8286;51.274;9.542;2023-06-26T04:09:13;9.18;;;5.40;;
16352;SDS011;8286;51.274;9.542;2023-06-26T04:11:39;5.70;;;4.88;;
16352;SDS011;8286;51.274;9.542;2023-06-26T04:14:06;9.40;;;5.60;;
16352;SDS011;8286;51.274;9.542;2023-06-26T04:16:34;16.25;;;5.45;;
16352;SDS011;8286;51.274;9.542;2023-06-26T04:19:01;7.60;;;5.60;;
16352;SDS011;8286;51.274;9.542;2023-06-26T04:21:29;9.95;;;5.43;;
16352;SDS011;8286;51.274;9.542;2023-06-26T04:23:56;9.50;;;5.13;;
16352;SDS011;8286;51.274;9.542;2023-06-26T04:26:22;6.65;;;4.50;;
16352;SDS011;8286;51.274;9.542;2023-06-26T04:28:49;10.00;;;4.70;;
16352;SDS011;8286;51.274;9.542;2023-06-26T04:31:15;6.70;;;4.93;;
16352;SDS011;8286;51.274;9.542;2023-06-26T04:33:43;5.80;;;4.43;;
16352;SDS011;8286;51.274;9.542;2023-06-26T04:36:10;7.15;;;5.20;;
16352;SDS011;8286;51.274;9.542;2023-06-26T04:38:37;6.15;;;5.00;;
16352;SDS011;8286;51.274;9.542;2023-06-26T04:41:03;6.15;;;4.47;;
16352;SDS011;8286;51.274;9.542;2023-06-26T04:43:30;5.70;;;5.10;;
16352;SDS011;8286;51.274;9.542;2023-06-26T04:45:57;5.25;;;4.50;;
16352;SDS011;8286;51.274;9.542;2023-06-26T04:48:23;8.77;;;4.75;;
16352;SDS011;8286;51.274;9.542;2023-06-26T04:50:53;7.60;;;4.53;;
16352;SDS011;8286;51.274;9.542;2023-06-26T04:53:21;8.85;;;4.85;;
16352;SDS011;8286;51.274;9.542;2023-06-26T04:55:48;7.38;;;5.40;;
16352;SDS011;8286;51.274;9.542;2023-06-26T04:58:15;6.90;;;4.63;;
16352;SDS011;8286;51.274;9.542;2023-06-26T05:00:41;8.38;;;4.97;;
16352;SDS011;8286;51.274;9.542;2023-06-26T05:03:08;7.30;;;4.75;;
16352;SDS011;8286;51.274;9.542;2023-06-26T05:05:35;5.95;;;4.60;;
16352;SDS011;8286;51.274;9.542;2023-06-26T05:08:14;9.70;;;4.65;;
16352;SDS011;8286;51.274;9.542;2023-06-26T05:10:41;6.85;;;4.82;;
16352;SDS011;8286;51.274;9.542;2023-06-26T05:13:08;5.70;;;5.07;;
16352;SDS011;8286;51.274;9.542;2023-06-26T05:15:34;7.10;;;5.28;;
16352;SDS011;8286;51.274;9.542;2023-06-26T05:18:01;8.77;;;5.93;;
16352;SDS011;8286;51.274;9.542;2023-06-26T05:20:28;8.02;;;4.90;;
16352;SDS011;8286;51.274;9.542;2023-06-26T05:22:54;9.57;;;4.95;;
16352;SDS011;8286;51.274;9.542;2023-06-26T05:25:22;6.45;;;4.95;;
16352;SDS011;8286;51.274;9.542;2023-06-26T05:27:50;7.80;;;4.93;;
16352;SDS011;8286;51.274;9.542;2023-06-26T05:30:17;6.32;;;5.15;;
16352;SDS011;8286;51.274;9.542;2023-06-26T05:32:45;5.55;;;4.72;;
16352;SDS011;8286;51.274;9.542;2023-06-26T05:35:13;5.38;;;4.68;;
16352;SDS011;8286;51.274;9.542;2023-06-26T05:37:40;8.32;;;4.68;;
16352;SDS011;8286;51.274;9.542;2023-06-26T05:40:08;5.35;;;4.85;;
16352;SDS011;8286;51.274;9.542;2023-06-26T05:42:37;6.20;;;4.90;;
16352;SDS011;8286;51.274;9.542;2023-06-26T05:45:04;5.00;;;4.38;;
16352;SDS011;8286;51.274;9.542;2023-06-26T05:47:31;6.80;;;5.80;;
16352;SDS011;8286;51.274;9.542;2023-06-26T05:49:58;5.28;;;4.78;;
16352;SDS011;8286;51.274;9.542;2023-06-26T05:52:25;5.13;;;4.68;;
16352;SDS011;8286;51.274;9.542;2023-06-26T05:54:52;10.80;;;4.90;;
16352;SDS011;8286;51.274;9.542;2023-06-26T05:57:19;8.68;;;5.85;;
16352;SDS011;8286;51.274;9.542;2023-06-26T05:59:48;7.25;;;5.70;;
16352;SDS011;8286;51.274;9.542;2023-06-26T06:02:15;12.35;;;6.18;;
16352;SDS011;8286;51.274;9.542;2023-06-26T06:04:41;7.90;;;5.93;;
16352;SDS011;8286;51.274;9.542;2023-06-26T06:07:08;9.02;;;6.03;;
16352;SDS011;8286;51.274;9.542;2023-06-26T06:09:34;7.85;;;5.72;;
16352;SDS011;8286;51.274;9.542;2023-06-26T06:12:01;7.80;;;5.75;;
16352;SDS011;8286;51.274;9.542;2023-06-26T06:14:28;7.13;;;5.40;;
16352;SDS011;8286;51.274;9.542;2023-06-26T06:16:57;7.40;;;5.20;;
16352;SDS011;8286;51.274;9.542;2023-06-26T06:19:23;7.43;;;5.55;;
16352;SDS011;8286;51.274;9.542;2023-06-26T06:21:50;9.13;;;5.35;;
16352;SDS011;8286;51.274;9.542;2023-06-26T06:24:16;7.57;;;5.05;;
16352;SDS011;8286;51.274;9.542;2023-06-26T06:26:43;5.88;;;5.22;;
16352;SDS011;8286;51.274;9.542;2023-06-26T06:29:10;8.93;;;5.72;;
16352;SDS011;8286;51.274;9.542;2023-06-26T06:31:36;9.27;;;5.40;;
16352;SDS011;8286;51.274;9.542;2023-06-26T06:34:04;9.30;;;5.20;;
16352;SDS011;8286;51.274;9.542;2023-06-26T06:36:31;5.90;;;5.28;;
16352;SDS011;8286;51.274;9.542;2023-06-26T06:38:57;7.43;;;5.30;;
16352;SDS011;8286;51.274;9.542;2023-06-26T06:41:24;6.32;;;4.72;;
16352;SDS011;8286;51.274;9.542;2023-06-26T06:43:51;7.95;;;4.75;;
16352;SDS011;8286;51.274;9.542;2023-06-26T06:46:17;5.38;;;4.80;;
16352;SDS011;8286;51.274;9.542;2023-06-26T06:48:45;8.88;;;5.10;;
16352;SDS011;8286;51.274;9.542;2023-06-26T06:51:14;8.15;;;4.35;;
16352;SDS011;8286;51.274;9.542;2023-06-26T06:53:40;6.15;;;4.68;;
16352;SDS011;8286;51.274;9.542;2023-06-26T06:56:07;4.50;;;4.10;;
16352;SDS011;8286;51.274;9.542;2023-06-26T06:58:33;6.50;;;4.70;;
16352;SDS011;8286;51.274;9.542;2023-06-26T07:01:00;5.03;;;4.60;;
16352;SDS011;8286;51.274;9.542;2023-06-26T07:03:29;7.05;;;4.55;;
16352;SDS011;8286;51.274;9.542;2023-06-26T07:05:55;4.57;;;4.18;;
16352;SDS011;8286;51.274;9.542;2023-06-26T07:08:23;4.65;;;4.22;;
16352;SDS011;8286;51.274;9.542;2023-06-26T07:10:50;9.65;;;4.25;;
16352;SDS011;8286;51.274;9.542;2023-06-26T07:13:17;5.00;;;4.60;;
16352;SDS011;8286;51.274;9.542;2023-06-26T07:15:43;4.43;;;4.03;;
16352;SDS011;8286;51.274;9.542;2023-06-26T07:18:12;4.43;;;4.13;;
16352;SDS011;8286;51.274;9.542;2023-06-26T07:20:39;5.10;;;4.70;;
16352;SDS011;8286;51.274;9.542;2023-06-26T07:23:06;5.07;;;4.57;;
16352;SDS011;8286;51.274;9.542;2023-06-26T07:25:34;5.38;;;4.88;;
16352;SDS011;8286;51.274;9.542;2023-06-26T07:28:01;5.28;;;4.47;;
16352;SDS011;8286;51.274;9.542;2023-06-26T07:30:28;5.07;;;4.57;;
16352;SDS011;8286;51.274;9.542;2023-06-26T07:32:54;4.97;;;4.47;;
16352;SDS011;8286;51.274;9.542;2023-06-26T07:35:21;5.03;;;4.57;;
16352;SDS011;8286;51.274;9.542;2023-06-26T07:37:48;6.13;;;4.68;;
16352;SDS011;8286;51.274;9.542;2023-06-26T07:40:14;5.07;;;4.53;;
16352;SDS011;8286;51.274;9.542;2023-06-26T07:42:44;4.65;;;4.25;;
16352;SDS011;8286;51.274;9.542;2023-06-26T07:45:11;4.55;;;4.15;;
16352;SDS011;8286;51.274;9.542;2023-06-26T07:47:38;5.10;;;4.60;;
16352;SDS011;8286;51.274;9.542;2023-06-26T07:50:05;5.15;;;4.65;;
16352;SDS011;8286;51.274;9.542;2023-06-26T07:52:32;6.45;;;4.60;;
16352;SDS011;8286;51.274;9.542;2023-06-26T07:54:58;4.90;;;4.40;;
16352;SDS011;8286;51.274;9.542;2023-06-26T07:57:25;4.80;;;4.38;;
16352;SDS011;8286;51.274;9.542;2023-06-26T07:59:53;7.30;;;4.88;;
16352;SDS011;8286;51.274;9.542;2023-06-26T08:02:20;7.07;;;4.82;;
16352;SDS011;8286;51.274;9.542;2023-06-26T08:04:48;6.00;;;4.75;;
16352;SDS011;8286;51.274;9.542;2023-06-26T08:07:14;6.13;;;4.90;;
16352;SDS011;8286;51.274;9.542;2023-06-26T08:09:41;5.03;;;4.63;;
16352;SDS011;8286;51.274;9.542;2023-06-26T08:12:07;6.20;;;4.55;;
16352;SDS011;8286;51.274;9.542;2023-06-26T08:14:34;5.70;;;5.05;;
16352;SDS011;8286;51.274;9.542;2023-06-26T08:17:03;5.35;;;4.53;;
16352;SDS011;8286;51.274;9.542;2023-06-26T08:19:29;8.32;;;4.90;;
16352;SDS011;8286;51.274;9.542;2023-06-26T08:21:56;6.95;;;4.85;;
16352;SDS011;8286;51.274;9.542;2023-06-26T08:24:23;6.80;;;5.28;;
16352;SDS011;8286;51.274;9.542;2023-06-26T08:26:49;5.57;;;4.80;;
16352;SDS011;8286;51.274;9.542;2023-06-26T08:29:16;7.15;;;5.43;;
16352;SDS011;8286;51.274;9.542;2023-06-26T08:31:42;5.68;;;5.18;;
16352;SDS011;8286;51.274;9.542;2023-06-26T08:34:10;5.88;;;4.85;;
16352;SDS011;8286;51.274;9.542;2023-06-26T08:36:37;5.85;;;5.28;;
16352;SDS011;8286;51.274;9.542;2023-06-26T08:39:04;6.65;;;5.13;;
16352;SDS011;8286;51.274;9.542;2023-06-26T08:41:31;7.88;;;4.85;;
16352;SDS011;8286;51.274;9.542;2023-06-26T08:43:58;7.85;;;5.10;;
16352;SDS011;8286;51.274;9.542;2023-06-26T08:46:24;9.00;;;5.30;;
16352;SDS011;8286;51.274;9.542;2023-06-26T08:48:53;7.55;;;4.82;;
16352;SDS011;8286;51.274;9.542;2023-06-26T08:54:45;8.30;;;5.30;;
16352;SDS011;8286;51.274;9.542;2023-06-26T08:57:13;6.25;;;5.50;;
16352;SDS011;8286;51.274;9.542;2023-06-26T08:59:42;7.15;;;5.00;;
16352;SDS011;8286;51.274;9.542;2023-06-26T09:02:08;6.55;;;5.35;;
16352;SDS011;8286;51.274;9.542;2023-06-26T09:04:35;5.93;;;5.05;;
16352;SDS011;8286;51.274;9.542;2023-06-26T09:07:01;7.05;;;5.88;;
16352;SDS011;8286;51.274;9.542;2023-06-26T09:09:28;7.63;;;4.95;;
16352;SDS011;8286;51.274;9.542;2023-06-26T09:11:56;6.20;;;4.93;;
16352;SDS011;8286;51.274;9.542;2023-06-26T09:14:23;5.68;;;5.13;;
16352;SDS011;8286;51.274;9.542;2023-06-26T09:16:50;5.82;;;4.95;;
16352;SDS011;8286;51.274;9.542;2023-06-26T09:19:16;6.22;;;5.07;;
16352;SDS011;8286;51.274;9.542;2023-06-26T09:21:43;6.80;;;5.13;;
16352;SDS011;8286;51.274;9.542;2023-06-26T09:24:09;5.25;;;4.72;;
16352;SDS011;8286;51.274;9.542;2023-06-26T09:26:36;6.13;;;5.53;;
16352;SDS011;8286;51.274;9.542;2023-06-26T09:29:05;6.40;;;5.32;;
16352;SDS011;8286;51.274;9.542;2023-06-26T09:31:32;6.25;;;5.45;;
16352;SDS011;8286;51.274;9.542;2023-06-26T09:34:01;6.10;;;5.50;;
16352;SDS011;8286;51.274;9.542;2023-06-26T09:36:29;7.55;;;5.22;;
16352;SDS011;8286;51.274;9.542;2023-06-26T09:38:58;10.57;;;5.45;;
16352;SDS011;8286;51.274;9.542;2023-06-26T09:41:26;6.20;;;5.40;;
16352;SDS011;8286;51.274;9.542;2023-06-26T09:43:53;6.10;;;5.45;;
16352;SDS011;8286;51.274;9.542;2023-06-26T09:46:25;7.43;;;4.60;;
16352;SDS011;8286;51.274;9.542;2023-06-26T09:48:57;7.15;;;5.00;;
16352;SDS011;8286;51.274;9.542;2023-06-26T09:51:24;6.32;;;5.38;;
16352;SDS011;8286;51.274;9.542;2023-06-26T09:53:51;5.85;;;5.05;;
16352;SDS011;8286;51.274;9.542;2023-06-26T09:56:18;6.35;;;5.32;;
16352;SDS011;8286;51.274;9.542;2023-06-26T09:58:44;8.15;;;5.88;;
16352;SDS011;8286;51.274;9.542;2023-06-26T10:01:11;5.90;;;5.03;;
16352;SDS011;8286;51.274;9.542;2023-06-26T10:03:39;5.93;;;5.40;;
16352;SDS011;8286;51.274;9.542;2023-06-26T10:06:05;7.93;;;5.38;;
16352;SDS011;8286;51.274;9.542;2023-06-26T10:08:33;7.80;;;5.90;;
16352;SDS011;8286;51.274;9.542;2023-06-26T10:11:00;5.80;;;5.20;;
16352;SDS011;8286;51.274;9.542;2023-06-26T10:13:27;5.93;;;5.32;;
16352;SDS011;8286;51.274;9.542;2023-06-26T10:15:57;6.75;;;5.35;;
16352;SDS011;8286;51.274;9.542;2023-06-26T10:18:24;5.40;;;4.90;;
16352;SDS011;8286;51.274;9.542;2023-06-26T10:20:53;8.13;;;5.35;;
16352;SDS011;8286;51.274;9.542;2023-06-26T10:23:22;6.65;;;5.20;;
16352;SDS011;8286;51.274;9.542;2023-06-26T10:25:51;6.72;;;5.22;;
16352;SDS011;8286;51.274;9.542;2023-06-26T10:28:18;6.53;;;5.85;;
16352;SDS011;8286;51.274;9.542;2023-06-26T10:30:46;5.93;;;5.32;;
16352;SDS011;8286;51.274;9.542;2023-06-26T10:33:14;9.15;;;5.63;;
16352;SDS011;8286;51.274;9.542;2023-06-26T10:35:42;6.28;;;5.70;;
16352;SDS011;8286;51.274;9.542;2023-06-26T10:38:10;6.32;;;5.70;;
16352;SDS011;8286;51.274;9.542;2023-06-26T10:40:40;6.82;;;5.25;;
16352;SDS011;8286;51.274;9.542;2023-06-26T10:43:08;29.85;;;8.00;;
16352;SDS011;8286;51.274;9.542;2023-06-26T10:45:36;17.52;;;7.82;;
16352;SDS011;8286;51.274;9.542;2023-06-26T10:48:02;21.52;;;8.85;;
16352;SDS011;8286;51.274;9.542;2023-06-26T10:50:30;16.63;;;8.73;;
16352;SDS011;8286;51.274;9.542;2023-06-26T10:53:14;12.38;;;8.32;;
16352;SDS011;8286;51.274;9.542;2023-06-26T10:55:47;19.83;;;8.85;;
16352;SDS011;8286;51.274;9.542;2023-06-26T10:58:26;11.80;;;8.48;;
16352;SDS011;8286;51.274;9.542;2023-06-26T11:00:54;9.52;;;6.85;;
16352;SDS011;8286;51.274;9.542;2023-06-26T11:03:41;13.23;;;7.20;;
16352;SDS011;8286;51.274;9.542;2023-06-26T11:06:08;13.55;;;7.15;;
16352;SDS011;8286;51.274;9.542;2023-06-26T11:08:46;10.25;;;6.15;;
16352;SDS011;8286;51.274;9.542;2023-06-26T11:11:13;11.45;;;6.68;;
16352;SDS011;8286;51.274;9.542;2023-06-26T11:13:39;10.80;;;7.10;;
16352;SDS011;8286;51.274;9.542;2023-06-26T11:16:06;10.77;;;6.32;;
16352;SDS011;8286;51.274;9.542;2023-06-26T11:18:32;13.02;;;7.32;;
16352;SDS011;8286;51.274;9.542;2023-06-26T11:21:04;8.95;;;6.53;;
16352;SDS011;8286;51.274;9.542;2023-06-26T11:23:31;7.50;;;6.25;;
16352;SDS011;8286;51.274;9.542;2023-06-26T11:26:13;7.60;;;6.45;;
16352;SDS011;8286;51.274;9.542;2023-06-26T11:28:45;7.82;;;6.03;;
16352;SDS011;8286;51.274;9.542;2023-06-26T11:31:23;8.68;;;5.72;;
16352;SDS011;8286;51.274;9.542;2023-06-26T11:33:50;8.52;;;6.10;;
16352;SDS011;8286;51.274;9.542;2023-06-26T11:36:17;7.85;;;6.03;;
16352;SDS011;8286;51.274;9.542;2023-06-26T11:38:43;7.57;;;5.95;;
16352;SDS011;8286;51.274;9.542;2023-06-26T11:41:10;10.73;;;6.82;;
16352;SDS011;8286;51.274;9.542;2023-06-26T11:43:37;8.07;;;6.50;;
16352;SDS011;8286;51.274;9.542;2023-06-26T11:46:04;9.32;;;6.32;;
16352;SDS011;8286;51.274;9.542;2023-06-26T11:48:31;8.77;;;6.72;;
16352;SDS011;8286;51.274;9.542;2023-06-26T11:50:57;8.02;;;6.72;;
16352;SDS011;8286;51.274;9.542;2023-06-26T11:53:25;7.43;;;5.90;;
16352;SDS011;8286;51.274;9.542;2023-06-26T11:55:51;8.60;;;6.15;;
16352;SDS011;8286;51.274;9.542;2023-06-26T11:58:18;8.63;;;7.22;;
16352;SDS011;8286;51.274;9.542;2023-06-26T12:00:47;10.10;;;7.10;;
16352;SDS011;8286;51.274;9.542;2023-06-26T12:03:13;11.65;;;7.18;;
16352;SDS011;8286;51.274;9.542;2023-06-26T12:05:40;10.18;;;6.80;;
16352;SDS011;8286;51.274;9.542;2023-06-26T12:08:10;10.65;;;6.63;;
16352;SDS011;8286;51.274;9.542;2023-06-26T12:10:36;8.88;;;6.40;;
16352;SDS011;8286;51.274;9.542;2023-06-26T12:13:03;9.52;;;6.50;;
16352;SDS011;8286;51.274;9.542;2023-06-26T12:15:29;7.43;;;6.38;;
16352;SDS011;8286;51.274;9.542;2023-06-26T12:17:57;13.85;;;7.40;;
16352;SDS011;8286;51.274;9.542;2023-06-26T12:20:24;10.60;;;6.97;;
16352;SDS011;8286;51.274;9.542;2023-06-26T12:22:51;10.15;;;7.57;;
16352;SDS011;8286;51.274;9.542;2023-06-26T12:25:21;10.30;;;7.28;;
16352;SDS011;8286;51.274;9.542;2023-06-26T12:27:48;9.43;;;7.20;;
16352;SDS011;8286;51.274;9.542;2023-06-26T12:30:15;7.72;;;6.65;;
16352;SDS011;8286;51.274;9.542;2023-06-26T12:32:43;10.40;;;7.10;;
16352;SDS011;8286;51.274;9.542;2023-06-26T12:35:12;8.70;;;6.72;;
16352;SDS011;8286;51.274;9.542;2023-06-26T12:37:38;8.35;;;6.78;;
16352;SDS011;8286;51.274;9.542;2023-06-26T12:40:15;8.43;;;7.40;;
16352;SDS011;8286;51.274;9.542;2023-06-26T12:42:42;10.45;;;7.75;;
16352;SDS011;8286;51.274;9.542;2023-06-26T12:45:12;13.27;;;7.65;;
16352;SDS011;8286;51.274;9.542;2023-06-26T12:47:40;11.18;;;8.07;;
16352;SDS011;8286;51.274;9.542;2023-06-26T12:50:07;9.60;;;7.53;;
16352;SDS011;8286;51.274;9.542;2023-06-26T12:52:35;11.05;;;8.10;;
16352;SDS011;8286;51.274;9.542;2023-06-26T12:55:02;8.60;;;7.75;;
16352;SDS011;8286;51.274;9.542;2023-06-26T12:57:28;10.88;;;8.10;;
16352;SDS011;8286;51.274;9.542;2023-06-26T12:59:55;9.45;;;8.45;;
16352;SDS011;8286;51.274;9.542;2023-06-26T13:02:21;10.48;;;8.80;;
16352;SDS011;8286;51.274;9.542;2023-06-26T13:04:48;10.43;;;7.65;;
16352;SDS011;8286;51.274;9.542;2023-06-26T13:07:14;9.13;;;7.80;;
16352;SDS011;8286;51.274;9.542;2023-06-26T13:09:42;9.43;;;7.60;;
16352;SDS011;8286;51.274;9.542;2023-06-26T13:12:09;12.52;;;7.90;;
16352;SDS011;8286;51.274;9.542;2023-06-26T13:14:36;9.65;;;7.82;;
16352;SDS011;8286;51.274;9.542;2023-06-26T13:17:03;9.02;;;7.43;;
16352;SDS011;8286;51.274;9.542;2023-06-26T13:19:30;11.35;;;7.20;;
16352;SDS011;8286;51.274;9.542;2023-06-26T13:21:56;9.38;;;7.65;;
16352;SDS011;8286;51.274;9.542;2023-06-26T13:24:23;11.70;;;8.13;;
16352;SDS011;8286;51.274;9.542;2023-06-26T13:26:51;11.57;;;7.82;;
16352;SDS011;8286;51.274;9.542;2023-06-26T13:29:17;11.05;;;7.88;;
16352;SDS011;8286;51.274;9.542;2023-06-26T13:31:44;9.00;;;7.68;;
16352;SDS011;8286;51.274;9.542;2023-06-26T13:34:19;9.23;;;7.95;;
16352;SDS011;8286;51.274;9.542;2023-06-26T13:36:46;12.70;;;8.25;;
16352;SDS011;8286;51.274;9.542;2023-06-26T13:39:16;8.05;;;7.22;;
16352;SDS011;8286;51.274;9.542;2023-06-26T13:41:42;9.43;;;6.68;;
16352;SDS011;8286;51.274;9.542;2023-06-26T13:44:10;8.57;;;7.18;;
16352;SDS011;8286;51.274;9.542;2023-06-26T13:46:36;8.43;;;6.95;;
16352;SDS011;8286;51.274;9.542;2023-06-26T13:49:03;9.52;;;7.13;;
16352;SDS011;8286;51.274;9.542;2023-06-26T13:51:30;7.03;;;6.32;;
16352;SDS011;8286;51.274;9.542;2023-06-26T13:53:56;7.82;;;7.13;;
16352;SDS011;8286;51.274;9.542;2023-06-26T13:56:25;6.53;;;5.88;;
16352;SDS011;8286;51.274;9.542;2023-06-26T13:58:51;7.78;;;5.40;;
16352;SDS011;8286;51.274;9.542;2023-06-26T14:01:20;10.38;;;5.20;;
16352;SDS011;8286;51.274;9.542;2023-06-26T14:03:48;10.10;;;5.15;;
16352;SDS011;8286;51.274;9.542;2023-06-26T14:06:14;9.65;;;5.45;;
16352;SDS011;8286;51.274;9.542;2023-06-26T14:08:41;7.95;;;4.70;;
16352;SDS011;8286;51.274;9.542;2023-06-26T14:11:08;5.55;;;4.82;;
16352;SDS011;8286;51.274;9.542;2023-06-26T14:13:34;8.07;;;4.60;;
16352;SDS011;8286;51.274;9.542;2023-06-26T14:16:01;4.75;;;4.18;;
16352;SDS011;8286;51.274;9.542;2023-06-26T14:18:29;7.55;;;4.40;;
16352;SDS011;8286;51.274;9.542;2023-06-26T14:20:55;5.47;;;4.22;;
16352;SDS011;8286;51.274;9.542;2023-06-26T14:23:22;8.43;;;4.72;;
16352;SDS011;8286;51.274;9.542;2023-06-26T14:25:48;9.05;;;4.20;;
16352;SDS011;8286;51.274;9.542;2023-06-26T14:28:15;7.70;;;3.78;;
16352;SDS011;8286;51.274;9.542;2023-06-26T14:30:41;7.72;;;3.95;;
16352;SDS011;8286;51.274;9.542;2023-06-26T14:33:08;6.75;;;3.83;;
16352;SDS011;8286;51.274;9.542;2023-06-26T14:35:35;6.43;;;3.60;;
16352;SDS011;8286;51.274;9.542;2023-06-26T14:38:02;5.80;;;3.28;;
16352;SDS011;8286;51.274;9.542;2023-06-26T14:40:29;6.20;;;3.60;;
16352;SDS011;8286;51.274;9.542;2023-06-26T14:42:56;5.75;;;3.47;;
16352;SDS011;8286;51.274;9.542;2023-06-26T14:45:22;6.70;;;3.20;;
16352;SDS011;8286;51.274;9.542;2023-06-26T14:47:49;3.78;;;3.05;;
16352;SDS011;8286;51.274;9.542;2023-06-26T14:50:15;3.25;;;2.83;;
16352;SDS011;8286;51.274;9.542;2023-06-26T14:52:43;4.72;;;3.08;;
16352;SDS011;8286;51.274;9.542;2023-06-26T14:55:10;6.68;;;3.03;;
16352;SDS011;8286;51.274;9.542;2023-06-26T14:57:36;6.68;;;3.50;;
16352;SDS011;8286;51.274;9.542;2023-06-26T15:00:03;3.45;;;3.03;;
16352;SDS011;8286;51.274;9.542;2023-06-26T15:02:31;5.97;;;2.72;;
16352;SDS011;8286;51.274;9.542;2023-06-26T15:04:58;5.57;;;3.45;;